createdAt,value
2023-01-17T00:00:01.581Z,114.14
2023-01-17T00:01:01.472Z,114.58
2023-01-17T00:02:01.417Z,117.66
2023-01-17T00:03:01.486Z,112.84
2023-01-17T00:04:01.400Z,112.31
2023-01-17T00:05:01.331Z,113.72
2023-01-17T00:06:01.288Z,114.21
2023-01-17T00:07:01.224Z,114.09
2023-01-17T00:08:01.173Z,113.81
2023-01-17T00:09:01.149Z,119.83
2023-01-17T00:10:01.084Z,114.76
2023-01-17T00:11:01.032Z,117.65
2023-01-17T00:12:00.996Z,112.90
2023-01-17T00:13:00.958Z,114.55
2023-01-17T00:14:00.927Z,112.63
2023-01-17T00:15:00.873Z,115.85
2023-01-17T00:16:00.820Z,118.02
2023-01-17T00:17:00.760Z,114.72
2023-01-17T00:18:00.744Z,112.95
2023-01-17T00:19:00.684Z,112.66
2023-01-17T00:20:00.640Z,116.24
2023-01-17T00:21:00.602Z,115.39
2023-01-17T00:22:00.564Z,113.68
2023-01-17T00:23:00.532Z,112.87
2023-01-17T00:24:00.467Z,116.01
2023-01-17T00:25:00.413Z,112.00
2023-01-17T00:26:00.367Z,113.10
2023-01-17T00:27:00.313Z,110.32
2023-01-17T00:28:00.281Z,111.59
2023-01-17T00:29:00.220Z,110.66
2023-01-17T00:30:00.158Z,114.49
2023-01-17T00:31:00.174Z,109.28
2023-01-17T00:32:00.115Z,114.47
2023-01-17T00:33:00.005Z,112.68
2023-01-17T00:33:59.991Z,113.96
2023-01-17T00:34:59.892Z,109.97
2023-01-17T00:35:59.856Z,113.15
2023-01-17T00:36:59.787Z,110.97
2023-01-17T00:37:59.745Z,110.52
2023-01-17T00:38:59.708Z,115.39
2023-01-17T00:39:59.651Z,112.96
2023-01-17T00:40:59.606Z,112.29
2023-01-17T00:41:59.567Z,113.64
2023-01-17T00:42:59.524Z,109.90
2023-01-17T00:43:59.490Z,114.84
2023-01-17T00:44:59.415Z,111.30
2023-01-17T00:45:59.359Z,112.84
2023-01-17T00:46:59.297Z,110.09
2023-01-17T00:47:59.242Z,111.29
2023-01-17T00:48:59.191Z,113.71
2023-01-17T00:49:59.135Z,111.15
2023-01-17T00:50:59.066Z,108.47
2023-01-17T00:51:59.032Z,109.58
2023-01-17T00:52:58.993Z,112.86
2023-01-17T00:53:58.953Z,112.02
2023-01-17T02:30:54.723Z,102.16
2023-01-17T02:31:54.682Z,101.49
2023-01-17T02:32:54.605Z,103.09
2023-01-17T02:33:54.563Z,101.87
2023-01-17T02:34:54.511Z,107.89
2023-01-17T02:35:54.519Z,105.64
2023-01-17T02:36:54.429Z,98.82
2023-01-17T02:37:54.376Z,103.05
2023-01-17T02:38:54.352Z,100.89
2023-01-17T02:39:54.293Z,106.30
2023-01-17T02:40:54.268Z,107.87
2023-01-17T02:41:54.209Z,104.01
2023-01-17T02:42:54.182Z,100.42
2023-01-17T02:43:54.123Z,104.02
2023-01-17T02:44:54.066Z,103.76
2023-01-17T02:45:54.089Z,103.92
2023-01-17T02:46:53.985Z,101.75
2023-01-17T02:47:53.912Z,101.82
2023-01-17T02:48:53.889Z,103.73
2023-01-17T02:49:53.821Z,105.07
2023-01-17T02:50:53.755Z,105.21
2023-01-17T02:51:53.708Z,105.21
2023-01-17T02:52:53.662Z,102.16
2023-01-17T02:53:53.596Z,98.45
2023-01-17T02:54:53.559Z,100.92
2023-01-17T02:55:53.523Z,102.08
2023-01-17T02:56:53.483Z,102.10
2023-01-17T02:57:53.420Z,104.80
2023-01-17T02:58:53.357Z,102.52
2023-01-17T02:59:53.325Z,104.88
2023-01-17T03:00:53.356Z,103.05
2023-01-17T03:01:53.346Z,105.04
2023-01-17T03:02:53.321Z,102.76
2023-01-17T03:03:53.140Z,103.47
2023-01-17T03:04:53.099Z,99.39
2023-01-17T03:05:53.060Z,100.50
2023-01-17T03:06:52.994Z,99.15
2023-01-17T03:07:52.970Z,103.39
2023-01-17T03:08:52.925Z,106.81
2023-01-17T03:09:52.853Z,100.96
2023-01-17T03:10:52.838Z,102.02
2023-01-17T03:11:52.781Z,104.58
2023-01-17T03:12:52.708Z,103.64
2023-01-17T03:13:52.676Z,101.19
2023-01-17T03:14:52.628Z,102.84
2023-01-17T03:15:52.587Z,100.11
2023-01-17T03:16:52.611Z,100.16
2023-01-17T03:17:52.509Z,104.36
2023-01-17T03:18:52.465Z,101.39
2023-01-17T03:19:52.404Z,98.07
2023-01-17T03:20:52.390Z,101.37
2023-01-17T03:21:52.317Z,96.14
2023-01-17T03:22:52.283Z,98.05
2023-01-17T03:23:52.235Z,101.32
2023-01-17T03:24:52.194Z,98.72
2023-01-17T03:25:52.180Z,101.13
2023-01-17T03:26:52.116Z,101.62
2023-01-17T03:27:52.081Z,100.93
2023-01-17T03:28:52.048Z,100.56
2023-01-17T03:29:51.993Z,99.32
2023-01-17T03:30:51.980Z,100.30
2023-01-17T03:31:51.935Z,97.86
2023-01-17T03:32:51.906Z,99.49
2023-01-17T03:33:51.821Z,99.56
2023-01-17T03:34:51.798Z,101.15
2023-01-17T03:35:51.735Z,99.73
2023-01-17T03:36:51.731Z,98.97
2023-01-17T03:37:51.650Z,97.46
2023-01-17T03:38:51.597Z,96.57
2023-01-17T03:39:51.548Z,98.94
2023-01-17T03:40:51.516Z,101.65
2023-01-17T03:41:51.467Z,101.00
2023-01-17T03:42:51.406Z,100.42
2023-01-17T03:43:51.359Z,100.54
2023-01-17T03:44:51.317Z,101.00
2023-01-17T03:45:51.303Z,97.56
2023-01-17T03:46:51.234Z,100.54
2023-01-17T03:47:51.162Z,98.03
2023-01-17T03:48:51.122Z,97.94
2023-01-17T03:49:51.103Z,96.61
2023-01-17T03:50:51.007Z,96.60
2023-01-17T03:51:50.977Z,99.83
2023-01-17T03:52:50.910Z,98.89
2023-01-17T03:53:50.864Z,97.63
2023-01-17T03:54:50.809Z,97.95
2023-01-17T03:55:50.762Z,92.60
2023-01-17T03:56:50.723Z,98.61
2023-01-17T03:57:50.674Z,98.41
2023-01-17T03:58:50.640Z,95.93
2023-01-17T03:59:50.595Z,99.01
2023-01-17T04:00:50.553Z,97.91
2023-01-17T04:01:50.583Z,98.60
2023-01-17T04:02:50.561Z,94.44
2023-01-17T04:03:50.391Z,101.87
2023-01-17T04:04:50.341Z,96.52
2023-01-17T04:05:50.299Z,98.12
2023-01-17T04:06:50.247Z,97.80
2023-01-17T04:07:51.766Z,97.68
2023-01-17T04:08:50.168Z,97.21
2023-01-17T04:09:50.130Z,98.15
2023-01-17T04:10:50.095Z,98.44
2023-01-17T04:11:50.066Z,94.11
2023-01-17T04:12:49.985Z,98.48
2023-01-17T04:13:49.971Z,96.56
2023-01-17T04:14:49.895Z,95.80
2023-01-17T04:15:49.886Z,96.21
2023-01-17T04:16:49.842Z,97.77
2023-01-17T04:17:49.778Z,95.68
2023-01-17T04:18:49.718Z,98.80
2023-01-17T04:19:49.675Z,97.35
2023-01-17T04:20:49.614Z,95.87
2023-01-17T04:21:49.605Z,98.55
2023-01-17T04:22:49.537Z,100.82
2023-01-17T04:23:49.495Z,95.58
2023-01-17T04:24:49.451Z,95.50
2023-01-17T04:25:49.393Z,96.65
2023-01-17T04:26:49.345Z,96.99
2023-01-17T04:27:49.298Z,95.89
2023-01-17T04:28:49.262Z,96.90
2023-01-17T04:29:49.187Z,96.07
2023-01-17T04:30:49.189Z,95.84
2023-01-17T04:31:49.150Z,100.34
2023-01-17T04:32:49.072Z,96.21
2023-01-17T04:33:49.014Z,96.92
2023-01-17T04:34:48.948Z,100.37
2023-01-17T04:40:48.709Z,98.80
2023-01-17T04:41:48.626Z,95.36
2023-01-17T04:42:48.592Z,97.76
2023-01-17T04:43:48.534Z,95.03
2023-01-17T04:44:48.498Z,96.24
2023-01-17T04:45:48.440Z,94.58
2023-01-17T04:46:48.401Z,97.22
2023-01-17T04:47:48.356Z,96.41
2023-01-17T04:48:48.311Z,100.97
2023-01-17T04:49:48.253Z,96.71
2023-01-17T04:50:48.212Z,94.34
2023-01-17T04:51:48.149Z,91.72
2023-01-17T04:52:48.131Z,97.64
2023-01-17T04:53:48.072Z,95.48
2023-01-17T04:54:48.024Z,95.26
2023-01-17T04:55:47.965Z,95.46
2023-01-17T04:56:47.940Z,94.35
2023-01-17T04:57:47.878Z,96.37
2023-01-17T04:58:47.827Z,96.29
2023-01-17T04:59:47.796Z,94.34
2023-01-17T05:00:47.798Z,93.65
2023-01-17T05:01:47.747Z,94.83
2023-01-17T05:02:47.706Z,98.03
2023-01-17T05:03:47.605Z,96.69
2023-01-17T05:04:47.560Z,99.09
2023-01-17T05:05:47.583Z,96.36
2023-01-17T05:06:47.469Z,95.02
2023-01-17T05:07:47.428Z,95.49
2023-01-17T05:08:47.380Z,93.16
2023-01-17T05:09:47.339Z,92.59
2023-01-17T05:10:47.313Z,95.25
2023-01-17T05:11:47.258Z,92.73
2023-01-17T05:12:47.825Z,96.68
2023-01-17T05:13:47.154Z,96.48
2023-01-17T05:14:47.133Z,97.58
2023-01-17T05:15:47.094Z,94.53
2023-01-17T05:16:47.016Z,92.92
2023-01-17T05:17:46.985Z,92.81
2023-01-17T05:18:46.939Z,92.96
2023-01-17T05:19:46.884Z,94.21
2023-01-17T05:20:46.825Z,94.65
2023-01-17T05:21:46.823Z,93.83
2023-01-17T05:22:46.745Z,95.70
2023-01-17T05:23:46.741Z,92.90
2023-01-17T05:24:46.680Z,93.05
2023-01-17T05:25:46.630Z,96.59
2023-01-17T05:26:48.053Z,95.77
2023-01-17T05:27:46.555Z,92.47
2023-01-17T05:28:46.506Z,97.91
2023-01-17T05:29:46.454Z,95.04
2023-01-17T05:30:46.457Z,95.02
2023-01-17T05:31:46.358Z,96.05
2023-01-17T05:32:46.318Z,92.70
2023-01-17T05:33:46.283Z,92.97
2023-01-17T05:34:46.233Z,91.20
2023-01-17T05:35:46.177Z,94.43
2023-01-17T05:36:46.146Z,91.91
2023-01-17T05:37:46.104Z,96.60
2023-01-17T05:38:46.064Z,95.66
2023-01-17T05:39:46.025Z,94.04
2023-01-17T05:40:45.973Z,96.71
2023-01-17T05:41:45.943Z,95.39
2023-01-17T05:42:45.910Z,94.41
2023-01-17T05:43:45.853Z,93.72
2023-01-17T05:44:45.789Z,94.00
2023-01-17T05:45:45.754Z,90.26
2023-01-17T05:46:45.701Z,90.72
2023-01-17T05:47:45.662Z,95.08
2023-01-17T05:48:45.632Z,93.78
2023-01-17T05:49:46.012Z,88.56
2023-01-17T05:50:45.571Z,94.21
2023-01-17T05:51:45.477Z,92.42
2023-01-17T05:52:45.462Z,95.27
2023-01-17T05:53:45.425Z,91.13
2023-01-17T05:54:45.377Z,91.75
2023-01-17T05:55:45.342Z,92.63
2023-01-17T05:56:45.284Z,92.46
2023-01-17T05:57:45.232Z,91.46
2023-01-17T05:58:45.217Z,90.29
2023-01-17T05:59:45.153Z,90.57
2023-01-17T06:00:45.101Z,94.55
2023-01-17T06:01:45.064Z,93.49
2023-01-17T06:02:45.040Z,91.34
2023-01-17T06:03:44.997Z,92.99
2023-01-17T06:04:44.943Z,95.57
2023-01-17T06:05:44.876Z,86.27
2023-01-17T06:06:44.829Z,88.22
2023-01-17T06:07:44.785Z,89.76
2023-01-17T06:08:44.751Z,86.92
2023-01-17T06:09:44.707Z,87.45
2023-01-17T06:10:44.649Z,85.06
2023-01-17T06:11:44.622Z,85.87
2023-01-17T06:12:44.544Z,86.40
2023-01-17T06:13:44.511Z,79.09
2023-01-17T06:14:44.493Z,83.10
2023-01-17T06:15:44.453Z,82.24
2023-01-17T06:16:44.478Z,83.18
2023-01-17T06:17:44.324Z,83.21
2023-01-17T06:18:44.301Z,79.21
2023-01-17T06:19:44.271Z,85.23
2023-01-17T06:20:44.237Z,80.15
2023-01-17T06:21:44.154Z,85.85
2023-01-17T06:22:44.127Z,80.70
2023-01-17T06:23:44.095Z,77.58
2023-01-17T06:24:44.060Z,77.26
2023-01-17T06:25:44.006Z,77.61
2023-01-17T06:26:43.960Z,77.94
2023-01-17T06:27:43.904Z,78.58
2023-01-17T06:28:43.884Z,78.33
2023-01-17T06:29:43.832Z,76.24
2023-01-17T06:30:43.833Z,74.89
2023-01-17T06:31:43.745Z,77.67
2023-01-17T06:32:43.702Z,75.36
2023-01-17T06:33:43.662Z,73.27
2023-01-17T06:34:43.660Z,75.00
2023-01-17T06:35:43.595Z,74.05
2023-01-17T06:36:43.558Z,70.08
2023-01-17T06:37:43.505Z,69.17
2023-01-17T06:38:43.561Z,72.44
2023-01-17T06:39:43.441Z,72.69
2023-01-17T06:40:43.381Z,75.91
2023-01-17T06:41:43.333Z,74.50
2023-01-17T06:42:43.429Z,76.42
2023-01-17T06:43:43.254Z,73.59
2023-01-17T06:44:43.215Z,74.46
2023-01-17T06:45:43.182Z,74.09
2023-01-17T06:46:43.153Z,75.26
2023-01-17T06:47:43.132Z,77.73
2023-01-17T06:48:43.010Z,78.91
2023-01-17T06:49:42.985Z,78.96
2023-01-17T06:50:42.943Z,74.57
2023-01-17T06:51:43.787Z,72.52
2023-01-17T06:52:42.859Z,76.18
2023-01-17T06:53:42.814Z,74.85
2023-01-17T06:54:42.770Z,71.64
2023-01-17T06:55:42.716Z,67.47
2023-01-17T06:56:42.656Z,73.56
2023-01-17T06:57:42.624Z,76.44
2023-01-17T06:58:42.578Z,68.86
2023-01-17T06:59:42.642Z,66.73
2023-01-17T07:00:42.565Z,70.03
2023-01-17T07:01:42.512Z,69.61
2023-01-17T07:02:42.396Z,68.66
2023-01-17T07:03:42.394Z,69.23
2023-01-17T07:04:42.367Z,67.65
2023-01-17T07:05:42.261Z,66.46
2023-01-17T07:06:42.230Z,66.47
2023-01-17T07:07:42.194Z,65.55
2023-01-17T07:08:42.130Z,62.26
2023-01-17T07:09:42.092Z,66.13
2023-01-17T07:10:42.026Z,64.64
2023-01-17T07:11:41.998Z,64.30
2023-01-17T07:12:41.950Z,63.88
2023-01-17T07:13:41.909Z,62.92
2023-01-17T07:14:41.873Z,60.51
2023-01-17T07:15:41.825Z,62.56
2023-01-17T07:16:41.793Z,60.05
2023-01-17T07:17:41.735Z,61.94
2023-01-17T07:18:41.688Z,61.71
2023-01-17T07:19:41.641Z,61.71
2023-01-17T07:20:41.645Z,57.24
2023-01-17T07:21:41.566Z,58.94
2023-01-17T07:22:41.559Z,58.95
2023-01-17T07:23:41.458Z,59.12
2023-01-17T07:24:41.406Z,56.00
2023-01-17T07:25:41.378Z,60.07
2023-01-17T07:26:41.327Z,59.76
2023-01-17T07:27:41.331Z,59.75
2023-01-17T07:28:41.257Z,55.07
2023-01-17T07:29:41.194Z,57.68
2023-01-17T07:30:41.154Z,57.19
2023-01-17T07:31:41.153Z,48.08
2023-01-17T07:32:41.064Z,53.77
2023-01-17T07:33:41.013Z,52.22
2023-01-17T07:34:40.961Z,51.15
2023-01-17T07:35:40.930Z,54.93
2023-01-17T07:36:40.904Z,51.41
2023-01-17T07:37:40.833Z,50.03
2023-01-17T07:38:40.778Z,54.73
2023-01-17T07:39:40.745Z,52.98
2023-01-17T07:40:42.386Z,54.70
2023-01-17T07:41:40.639Z,49.38
2023-01-17T07:42:40.595Z,48.02
2023-01-17T07:43:40.540Z,46.71
2023-01-17T07:44:41.329Z,50.39
2023-01-17T07:45:40.475Z,37.04
2023-01-17T07:46:40.546Z,39.74
2023-01-17T07:47:40.351Z,44.06
2023-01-17T07:48:40.307Z,42.48
2023-01-17T07:49:40.268Z,46.55
2023-01-17T07:50:40.225Z,46.17
2023-01-17T07:51:40.158Z,48.90
2023-01-17T07:52:40.113Z,42.95
2023-01-17T07:53:40.075Z,51.18
2023-01-17T07:54:40.019Z,43.62
2023-01-17T07:55:39.983Z,43.13
2023-01-17T07:56:39.936Z,48.56
2023-01-17T07:57:39.879Z,50.87
2023-01-17T07:58:39.838Z,53.69
2023-01-17T07:59:39.801Z,48.53
2023-01-17T08:00:39.823Z,46.40
2023-01-17T08:01:39.836Z,46.37
2023-01-17T08:02:39.642Z,45.15
2023-01-17T08:03:39.713Z,53.69
2023-01-17T08:04:39.583Z,42.88
2023-01-17T08:05:39.529Z,46.11
2023-01-17T08:06:40.101Z,43.14
2023-01-17T08:07:39.451Z,46.23
2023-01-17T08:08:39.417Z,50.62
2023-01-17T08:09:39.365Z,48.26
2023-01-17T08:10:39.301Z,41.45
2023-01-17T08:11:39.256Z,43.72
2023-01-17T08:12:39.185Z,45.65
2023-01-17T08:13:39.156Z,45.09
2023-01-17T08:14:39.102Z,45.99
2023-01-17T08:15:39.065Z,40.05
2023-01-17T08:16:39.013Z,42.43
2023-01-17T08:17:38.957Z,42.39
2023-01-17T08:18:38.904Z,42.96
2023-01-17T09:39:34.862Z,49.87
2023-01-17T10:34:31.657Z,67.84
2023-01-17T10:35:31.573Z,61.59
2023-01-17T10:36:31.516Z,65.80
2023-01-17T10:37:31.542Z,64.69
2023-01-17T10:38:31.435Z,59.76
2023-01-17T10:39:31.352Z,62.84
2023-01-17T10:40:31.310Z,63.47
2023-01-17T10:41:31.253Z,63.87
2023-01-17T10:42:31.215Z,63.91
2023-01-17T10:43:31.201Z,65.39
2023-01-17T10:44:31.111Z,66.57
2023-01-17T10:45:31.046Z,68.15
2023-01-17T10:46:31.038Z,69.81
2023-01-17T10:47:30.960Z,77.23
2023-01-17T10:48:30.870Z,85.57
2023-01-17T10:49:30.857Z,88.96
2023-01-17T10:50:30.844Z,89.76
2023-01-17T10:51:30.722Z,90.79
2023-01-17T10:52:30.688Z,98.04
2023-01-17T10:53:30.626Z,99.50
2023-01-17T10:54:30.574Z,102.72
2023-01-17T10:55:30.541Z,107.93
2023-01-17T10:56:30.462Z,112.25
2023-01-17T10:57:30.413Z,112.29
2023-01-17T10:58:30.361Z,117.24
2023-01-17T10:59:30.309Z,121.18
2023-01-17T11:00:30.319Z,125.27
2023-01-17T11:01:30.288Z,124.55
2023-01-17T11:02:30.227Z,127.20
2023-01-17T11:03:30.151Z,131.00
2023-01-17T11:04:30.024Z,134.68
2023-01-17T11:05:29.985Z,141.73
2023-01-17T11:06:29.933Z,143.84
2023-01-17T11:07:29.847Z,143.05
2023-01-17T11:08:30.238Z,144.06
2023-01-17T11:09:29.760Z,143.31
2023-01-17T11:10:29.691Z,145.32
2023-01-17T11:11:29.616Z,152.06
2023-01-17T11:12:29.579Z,149.91
2023-01-17T11:13:29.518Z,149.38
2023-01-17T11:14:29.455Z,149.64
2023-01-17T11:15:29.403Z,150.00
2023-01-17T11:16:29.343Z,151.07
2023-01-17T11:17:29.305Z,152.95
2023-01-17T11:18:29.241Z,155.68
2023-01-17T11:19:29.165Z,157.32
2023-01-17T11:20:29.129Z,158.45
2023-01-17T11:21:29.085Z,156.69
2023-01-17T11:22:29.005Z,159.47
2023-01-17T11:23:28.969Z,155.32
2023-01-17T11:24:28.959Z,160.19
2023-01-17T11:37:31.196Z,159.99
2023-01-17T14:24:19.527Z,152.65
2023-01-17T14:25:19.460Z,157.99
2023-01-17T14:26:19.422Z,153.69
2023-01-17T14:27:19.384Z,150.71
2023-01-17T14:28:19.318Z,157.18
2023-01-17T14:29:19.249Z,156.92
2023-01-17T14:30:19.199Z,162.85
2023-01-17T14:31:19.201Z,160.19
2023-01-17T14:32:19.090Z,160.16
2023-01-17T14:33:19.039Z,159.89
2023-01-17T14:34:18.975Z,159.78
2023-01-17T14:35:18.937Z,161.69
2023-01-17T15:24:16.218Z,170.95
2023-01-17T15:25:16.365Z,174.58
2023-01-17T15:26:16.098Z,174.76
2023-01-17T15:27:16.053Z,172.49
2023-01-17T15:28:15.991Z,175.01
2023-01-17T15:29:15.920Z,173.11
2023-01-17T15:30:15.882Z,176.47
2023-01-17T15:31:15.833Z,178.72
2023-01-17T15:32:15.760Z,178.48
2023-01-17T15:33:15.731Z,180.92
2023-01-17T15:34:15.688Z,182.23
2023-01-17T15:35:15.666Z,182.81
2023-01-17T15:36:15.620Z,176.55
2023-01-17T15:37:15.487Z,178.15
2023-01-17T15:38:15.458Z,176.00
2023-01-17T15:39:15.385Z,183.64
2023-01-17T15:40:15.325Z,183.06
2023-01-17T15:41:15.268Z,183.99
2023-01-17T15:42:15.226Z,186.68
2023-01-17T15:43:15.206Z,192.24
2023-01-17T15:44:15.118Z,191.79
2023-01-17T15:45:15.042Z,191.25
2023-01-17T15:46:15.043Z,192.14
2023-01-17T15:47:14.911Z,190.88
2023-01-17T15:48:14.865Z,191.43
2023-01-17T15:49:17.376Z,192.82
2023-01-17T15:50:14.761Z,193.90
2023-01-17T15:51:14.721Z,193.18
2023-01-17T15:52:14.649Z,194.09
2023-01-17T15:53:14.594Z,195.47
2023-01-17T15:54:14.552Z,195.78
2023-01-17T15:55:14.503Z,196.42
2023-01-17T15:56:14.421Z,196.59
2023-01-17T15:57:14.369Z,198.46
2023-01-17T15:58:14.309Z,195.28
2023-01-17T15:59:14.295Z,194.98
2023-01-17T16:00:14.223Z,197.03
2023-01-17T16:01:14.289Z,201.77
2023-01-17T16:02:14.180Z,196.19
2023-01-17T16:03:14.042Z,197.42
2023-01-17T16:04:13.994Z,197.25
2023-01-17T16:05:13.929Z,192.79
2023-01-17T16:06:13.963Z,193.98
2023-01-17T16:07:13.795Z,194.50
2023-01-17T16:08:13.744Z,197.68
2023-01-17T16:09:13.702Z,193.68
2023-01-17T16:10:13.649Z,194.84
2023-01-17T16:11:13.578Z,194.30
2023-01-17T16:12:13.547Z,193.64
2023-01-17T16:13:13.492Z,191.61
2023-01-17T16:14:13.426Z,187.35
2023-01-17T16:15:13.828Z,192.63
2023-01-17T16:16:13.519Z,187.52
2023-01-17T16:17:13.244Z,188.84
2023-01-17T16:18:13.191Z,185.47
2023-01-17T16:19:13.141Z,184.28
2023-01-17T16:20:13.080Z,185.75
2023-01-17T16:21:13.041Z,179.42
2023-01-17T16:22:12.999Z,184.54
2023-01-17T16:23:12.921Z,181.17
2023-01-17T16:24:12.881Z,179.55
2023-01-17T16:25:12.814Z,181.47
2023-01-17T16:26:12.794Z,179.98
2023-01-17T16:27:12.737Z,177.01
2023-01-17T16:28:12.667Z,176.56
2023-01-17T16:29:12.626Z,180.07
2023-01-17T16:30:12.598Z,177.26
2023-01-17T16:31:12.636Z,176.30
2023-01-17T16:32:12.469Z,179.39
2023-01-17T16:33:12.432Z,173.78
2023-01-17T16:34:12.432Z,169.28
2023-01-17T16:35:12.332Z,169.79
2023-01-17T16:36:12.287Z,173.50
2023-01-17T16:37:12.253Z,171.33
2023-01-17T16:38:12.201Z,166.93
2023-01-17T16:39:12.140Z,169.08
2023-01-17T16:40:12.108Z,163.03
2023-01-17T16:41:12.051Z,165.38
2023-01-17T16:42:11.997Z,166.32
2023-01-17T16:43:11.963Z,162.86
2023-01-17T16:44:11.915Z,166.64
2023-01-17T16:45:11.872Z,164.59
2023-01-17T16:46:11.875Z,160.88
2023-01-17T16:47:11.771Z,160.58
2023-01-17T16:48:11.753Z,162.46
2023-01-17T16:49:11.673Z,158.17
2023-01-17T16:50:11.651Z,157.52
2023-01-17T16:51:11.595Z,158.55
2023-01-17T16:52:11.531Z,156.70
2023-01-17T16:53:11.488Z,156.84
2023-01-17T16:54:11.453Z,157.15
2023-01-17T16:55:11.406Z,156.77
2023-01-17T16:56:11.343Z,152.00
2023-01-17T16:57:11.291Z,151.65
2023-01-17T16:58:11.246Z,148.38
2023-01-17T16:59:11.203Z,152.71
2023-01-17T17:00:11.171Z,154.95
2023-01-17T17:01:11.250Z,152.44
2023-01-17T17:02:11.087Z,151.69
2023-01-17T17:03:11.019Z,149.32
2023-01-17T17:04:10.975Z,149.12
2023-01-17T17:05:10.976Z,147.23
2023-01-17T17:06:10.903Z,149.56
2023-01-17T17:07:10.839Z,147.54
2023-01-17T17:08:10.795Z,149.24
2023-01-17T17:09:10.751Z,148.41
2023-01-17T17:10:10.727Z,148.21
2023-01-17T17:11:10.663Z,148.49
2023-01-17T17:12:10.617Z,149.95
2023-01-17T17:13:10.558Z,149.55
2023-01-17T17:14:10.506Z,146.17
2023-01-17T17:15:10.460Z,147.83
2023-01-17T17:16:10.468Z,144.61
2023-01-17T17:17:10.370Z,145.21
2023-01-17T17:18:10.335Z,147.30
2023-01-17T17:19:10.262Z,144.96
2023-01-17T17:20:10.266Z,151.49
2023-01-17T17:21:10.164Z,145.34
2023-01-17T17:22:10.156Z,144.23
2023-01-17T17:23:10.061Z,145.21
2023-01-17T17:24:10.030Z,146.96
2023-01-17T17:25:09.995Z,144.67
2023-01-17T17:26:09.928Z,144.61
2023-01-17T17:27:09.880Z,146.58
2023-01-17T17:28:09.828Z,146.77
2023-01-17T17:29:09.781Z,145.54
2023-01-17T17:30:09.769Z,145.87
2023-01-17T17:31:09.702Z,145.37
2023-01-17T17:32:09.656Z,143.87
2023-01-17T17:33:09.620Z,146.54
2023-01-17T17:34:09.552Z,146.46
2023-01-17T17:35:09.515Z,144.00
2023-01-17T17:36:09.453Z,141.20
2023-01-17T17:37:09.401Z,142.80
2023-01-17T17:38:09.366Z,144.11
2023-01-17T17:39:09.314Z,145.37
2023-01-17T17:40:09.257Z,145.92
2023-01-17T17:41:09.204Z,145.49
2023-01-17T17:42:09.153Z,145.18
2023-01-17T17:43:09.109Z,146.20
2023-01-17T17:44:09.070Z,145.10
2023-01-17T17:45:09.041Z,144.87
2023-01-17T17:46:09.080Z,144.13
2023-01-17T17:47:08.928Z,142.62
2023-01-17T20:23:01.893Z,138.88
2023-01-17T20:24:01.854Z,141.51
2023-01-17T20:25:01.788Z,138.02
2023-01-17T20:26:01.790Z,139.21
2023-01-17T20:27:01.709Z,136.27
2023-01-17T20:28:01.664Z,139.15
2023-01-17T20:29:01.625Z,139.11
2023-01-17T20:30:14.858Z,137.24
2023-01-17T20:32:01.526Z,136.25
2023-01-17T20:33:01.432Z,138.19
2023-01-17T20:34:01.395Z,134.46
2023-01-17T20:35:01.356Z,139.96
2023-01-17T20:36:10.211Z,137.81
2023-01-17T20:38:01.201Z,137.83
2023-01-17T20:39:01.187Z,138.66
2023-01-17T20:40:01.160Z,139.00
2023-01-17T20:41:01.112Z,136.66
2023-01-17T20:42:01.063Z,139.93
2023-01-17T20:43:01.040Z,140.13
2023-01-17T20:44:00.983Z,137.96
2023-01-17T20:45:00.939Z,137.06
2023-01-17T20:46:00.905Z,139.07
2023-01-17T20:47:00.850Z,140.00
2023-01-17T20:48:00.826Z,139.12
2023-01-17T20:49:00.772Z,137.03
2023-01-17T20:50:00.715Z,137.52
2023-01-17T20:51:00.688Z,137.34
2023-01-17T20:52:00.681Z,139.17
2023-01-17T20:53:00.631Z,138.79
2023-01-17T20:54:00.585Z,136.01
2023-01-17T20:55:00.539Z,135.24
2023-01-17T20:56:00.499Z,138.52
2023-01-17T20:57:00.446Z,136.04
2023-01-17T20:58:00.407Z,137.35
2023-01-17T20:59:00.367Z,134.07
2023-01-17T21:00:00.322Z,135.94
2023-01-17T21:01:00.409Z,139.14
2023-01-17T21:02:00.388Z,139.97
2023-01-17T21:03:00.232Z,137.97
2023-01-17T21:04:00.136Z,138.08
2023-01-17T21:05:00.100Z,133.03
2023-01-17T21:06:00.035Z,133.78
2023-01-17T21:07:00.014Z,137.64
2023-01-17T21:07:59.941Z,133.34
2023-01-17T21:08:59.935Z,137.91
2023-01-17T21:09:59.837Z,136.26
2023-01-17T21:10:59.796Z,136.79
2023-01-17T21:11:59.749Z,136.56
2023-01-17T21:12:59.700Z,136.26
2023-01-17T21:13:59.664Z,134.40
2023-01-17T21:14:59.592Z,138.15
2023-01-17T21:15:59.566Z,137.78
2023-01-17T21:16:59.581Z,134.39
2023-01-17T21:17:59.512Z,133.04
2023-01-17T21:18:59.421Z,133.58
2023-01-17T21:19:59.373Z,135.01
2023-01-17T21:20:59.346Z,134.15
2023-01-17T21:21:59.268Z,137.67
2023-01-17T21:22:59.239Z,134.43
2023-01-17T21:23:59.180Z,138.81
2023-01-17T21:24:59.141Z,136.35
2023-01-17T21:25:59.101Z,135.39
2023-01-17T21:26:59.066Z,133.05
2023-01-17T21:27:59.238Z,137.98
2023-01-17T21:28:58.985Z,130.71
2023-01-17T21:29:58.952Z,133.43
